»·PEaware :: AAL2859 KSBA-KSAN

AAL2859 :: KSBA-KSAN

FLIGHT INFORMATION

Flight Status: Arrived
Operator:
American Airlines
More flights by this operator :: More flights under this callsign
Pilot: Alex A. (3534)
Aircraft: MCDONNELL-DOUGLAS DC-6/B LIFTMASTER
(DC6)
More flights by this aircraft type
Origin: KSBA Santa Barbara Mun
United States
Destination: KSAN San Diego Intl-Lindbergh
United States
More flights between these airports :: More routes between these airports
Route: +HENER V186 DARTS V597 MZB
File this flight plan on PilotEdge
Remarks: plz speek slowly
Altitude:
(Current/Filed)
15,000ft
Speed:
(Current/Filed)
210kts
Departed: 24-Nov-17 10:11 AM
Arrived: 24-Nov-17 11:17 AM
Distance/Time
Traveled:
166nm/1:06
Distance/Time
To Go:
Arrived

Flight Plot

Page will automatically refresh every two minutes.


Map Options




Map Legend


Flown Route
Filed Route
Departure Airport
Arrival Airport
Navaid (VOR, NDB)
Fix

Horizontal Profiles

Position Reports

Time Latitude Longitude Heading Altitude Ground
Speed
24-Nov-17 09:34 34.426008 -119.837596 91 19ft 0kts
24-Nov-17 09:35 34.426008 -119.837596 91 19ft 0kts
24-Nov-17 09:36 34.426008 -119.837596 91 19ft 0kts
24-Nov-17 09:37 34.426008 -119.837596 91 19ft 0kts
24-Nov-17 09:38 34.426008 -119.837596 91 19ft 0kts
24-Nov-17 09:39 34.426008 -119.837596 91 19ft 0kts
24-Nov-17 09:40 34.426008 -119.837596 91 19ft 0kts
24-Nov-17 09:41 34.426008 -119.837596 91 19ft 0kts
24-Nov-17 09:42 34.426008 -119.837596 91 19ft 0kts
24-Nov-17 09:43 34.426008 -119.837596 91 19ft 0kts
24-Nov-17 09:44 34.426008 -119.837596 91 19ft 0kts
24-Nov-17 09:45 34.426008 -119.837596 91 19ft 0kts
24-Nov-17 09:46 34.426008 -119.837596 91 19ft 0kts
24-Nov-17 09:47 34.426008 -119.837596 91 19ft 0kts
24-Nov-17 09:48 34.426008 -119.837596 91 19ft 0kts
24-Nov-17 09:49 34.426008 -119.837596 91 19ft 0kts
24-Nov-17 09:50 34.426008 -119.837596 91 19ft 0kts
24-Nov-17 09:51 34.426008 -119.837596 91 19ft 0kts
24-Nov-17 09:52 34.426008 -119.837596 91 19ft 0kts
24-Nov-17 09:53 34.426008 -119.837596 91 19ft 0kts
24-Nov-17 09:54 34.426008 -119.837596 91 19ft 0kts
24-Nov-17 09:55 34.426008 -119.837596 91 19ft 0kts
24-Nov-17 09:56 34.426008 -119.837596 91 19ft 0kts
24-Nov-17 09:57 34.426008 -119.837596 91 19ft 0kts
24-Nov-17 09:58 34.426008 -119.837596 91 19ft 0kts
24-Nov-17 09:59 34.426008 -119.837596 91 19ft 0kts
24-Nov-17 10:00 34.426008 -119.837596 91 19ft 0kts
24-Nov-17 10:01 34.426008 -119.837596 91 19ft 0kts
24-Nov-17 10:02 34.426008 -119.837596 91 19ft 0kts
24-Nov-17 10:03 34.426008 -119.837596 91 19ft 0kts
24-Nov-17 10:04 34.426008 -119.837596 91 19ft 0kts
24-Nov-17 10:05 34.426008 -119.837596 91 19ft 0kts
24-Nov-17 10:06 34.426008 -119.837595 91 19ft 0kts
24-Nov-17 10:07 34.426008 -119.837594 91 19ft 0kts
24-Nov-17 10:08 34.426008 -119.837593 91 19ft 0kts
24-Nov-17 10:09 34.426008 -119.837591 91 19ft 0kts
24-Nov-17 10:10 34.425924 -119.837482 166 19ft 0kts
24-Nov-17 10:11 34.425849 -119.837516 225 19ft 2kts
24-Nov-17 10:12 34.426760 -119.836303 88 19ft 13kts
24-Nov-17 10:13 34.427048 -119.834623 16 19ft 0kts
24-Nov-17 10:14 34.427048 -119.834623 16 19ft 0kts
24-Nov-17 10:15 34.427913 -119.835399 268 19ft 0kts
24-Nov-17 10:16 34.427720 -119.841568 270 19ft 89kts
24-Nov-17 10:17 34.425239 -119.883794 261 413ft 154kts
24-Nov-17 10:18 34.417773 -119.932750 250 1728ft 144kts
24-Nov-17 10:19 34.398329 -119.978154 229 2543ft 161kts
24-Nov-17 10:20 34.384724 -120.029676 274 3466ft 166kts
24-Nov-17 10:21 34.386414 -120.085661 275 4532ft 166kts
24-Nov-17 10:22 34.376209 -120.138613 209 5344ft 193kts
24-Nov-17 10:23 34.327616 -120.113409 151 6025ft 213kts
24-Nov-17 10:24 34.264890 -120.089177 162 6011ft 252kts
24-Nov-17 10:25 34.221498 -120.035894 76 6356ft 233kts
24-Nov-17 10:26 34.239511 -119.964029 74 7287ft 220kts
24-Nov-17 10:27 34.249301 -119.890758 77 7999ft 226kts
24-Nov-17 10:28 34.259087 -119.813042 78 8006ft 236kts
24-Nov-17 10:29 34.269022 -119.733620 78 8008ft 240kts
24-Nov-17 10:30 34.278990 -119.653498 78 8012ft 242kts
24-Nov-17 10:31 34.288953 -119.572965 78 8016ft 243kts
24-Nov-17 10:32 34.298672 -119.493990 78 8020ft 243kts
24-Nov-17 10:33 34.308580 -119.413030 78 8020ft 243kts
24-Nov-17 10:34 34.318486 -119.331678 79 8006ft 249kts
24-Nov-17 10:35 34.328412 -119.249578 79 8019ft 246kts
24-Nov-17 10:36 34.336062 -119.167380 83 8014ft 246kts
24-Nov-17 10:37 34.341836 -119.084743 82 8021ft 247kts
24-Nov-17 10:38 34.347960 -119.001002 82 8036ft 250kts
24-Nov-17 10:39 34.354181 -118.915848 82 8025ft 253kts
24-Nov-17 10:40 34.340556 -118.834527 113 8043ft 252kts
24-Nov-17 10:41 34.313966 -118.756136 111 8040ft 251kts
24-Nov-17 10:42 34.287458 -118.678105 111 8100ft 247kts
24-Nov-17 10:43 34.262749 -118.605940 111 8844ft 227kts
24-Nov-17 10:44 34.237543 -118.532466 111 9003ft 246kts
24-Nov-17 10:45 34.210921 -118.452138 108 8984ft 259kts
24-Nov-17 10:46 34.186289 -118.369157 109 8981ft 261kts
24-Nov-17 10:47 34.160941 -118.286968 114 8967ft 259kts
24-Nov-17 10:48 34.115265 -118.246213 159 8973ft 254kts
24-Nov-17 10:49 34.039561 -118.202444 155 8989ft 264kts
24-Nov-17 10:50 33.972270 -118.163363 155 8966ft 265kts
24-Nov-17 10:51 33.916827 -118.131390 155 8962ft 262kts
24-Nov-17 10:52 33.850168 -118.093060 155 8993ft 264kts
24-Nov-17 10:53 33.774669 -118.045914 138 9015ft 265kts
24-Nov-17 10:54 33.722049 -117.981633 136 8992ft 267kts
24-Nov-17 10:55 33.678206 -117.930190 136 9000ft 263kts
24-Nov-17 10:56 33.624604 -117.867080 135 9001ft 268kts
24-Nov-17 10:57 33.570573 -117.803473 136 9000ft 270kts
24-Nov-17 10:58 33.517648 -117.741291 136 9007ft 263kts
24-Nov-17 10:59 33.465634 -117.680223 136 9007ft 259kts
24-Nov-17 11:00 33.414368 -117.620196 136 9011ft 257kts
24-Nov-17 11:01 33.363013 -117.560195 136 9007ft 259kts
24-Nov-17 11:02 33.311451 -117.500051 136 9008ft 257kts
24-Nov-17 11:03 33.260451 -117.440623 136 9008ft 256kts
24-Nov-17 11:04 33.198959 -117.400133 162 9001ft 256kts
24-Nov-17 11:05 33.132075 -117.371938 161 8999ft 254kts
24-Nov-17 11:06 33.065512 -117.343939 162 8989ft 253kts
24-Nov-17 11:07 32.997822 -117.315545 161 8613ft 263kts
24-Nov-17 11:08 32.931925 -117.287861 161 7822ft 252kts
24-Nov-17 11:09 32.867174 -117.260785 161 7012ft 238kts
24-Nov-17 11:10 32.808432 -117.233991 142 6982ft 215kts
24-Nov-17 11:11 32.798610 -117.168288 85 6982ft 201kts
24-Nov-17 11:12 32.800881 -117.100181 85 6435ft 211kts
24-Nov-17 11:13 32.792108 -117.030502 114 5933ft 219kts
24-Nov-17 11:14 32.765623 -116.966344 109 5487ft 209kts
24-Nov-17 11:15 32.733898 -116.922493 197 4871ft 179kts
24-Nov-17 11:16 32.692903 -116.934048 207 4322ft 162kts
24-Nov-17 11:17 32.682789 -116.983514 276 3157ft 176kts
24-Nov-17 11:18 32.695078 -117.040309 288 2444ft 173kts
24-Nov-17 11:19 32.708028 -117.088340 285 1917ft 133kts
24-Nov-17 11:20 32.718646 -117.129722 286 921ft 118kts
24-Nov-17 11:21 32.728471 -117.168794 283 281ft 114kts
24-Nov-17 11:22 32.732772 -117.188330 220 24ft 0kts
24-Nov-17 11:23 32.732399 -117.188915 261 24ft 7kts
24-Nov-17 11:24 32.733225 -117.192571 286 24ft 11kts
24-Nov-17 11:25 32.734496 -117.197832 283 24ft 21kts
24-Nov-17 11:26 32.734910 -117.202387 200 24ft 3kts
24-Nov-17 11:27 32.734523 -117.203427 310 24ft 0kts

Navigation Log

Ident Type
1. KSBA Airport
2. HENER Fix
3. FIM Navaid
4. SESPE Fix
5. VNY Navaid
6. DARTS Fix
7. DODGR Fix
8. SLI Navaid
9. MIDDS Fix
10. BALBO Fix
11. KRAUZ Fix
12. DANAH Fix
13. KELPS Fix
14. OCN Navaid
15. HURSI Fix
16. CARIF Fix
17. MZB Navaid
18. KSAN Airport